createdAt,value
2018-10-17T00:00:19.226Z,100357.07
2018-10-17T00:02:48.872Z,100353.91
2018-10-17T00:05:18.558Z,100352.23
2018-10-17T00:07:48.263Z,100347.86
2018-10-17T00:10:17.908Z,100351.73
2018-10-17T00:12:48.336Z,100347.59
2018-10-17T00:15:17.995Z,100351.95
2018-10-17T00:17:47.648Z,100351.15
2018-10-17T00:20:17.376Z,100351.15
2018-10-17T00:22:47.094Z,100349.63
2018-10-17T00:25:16.856Z,100345.59
2018-10-17T00:27:46.527Z,100351.30
2018-10-17T00:30:16.188Z,100348.48
2018-10-17T00:32:45.850Z,100346.96
2018-10-17T00:35:15.590Z,100346.44
2018-10-17T00:37:45.251Z,100344.76
2018-10-17T00:40:14.927Z,100345.62
2018-10-17T00:42:44.612Z,100340.08
2018-10-17T00:45:14.269Z,100347.14
2018-10-17T00:47:43.925Z,100348.97
2018-10-17T00:50:13.634Z,100348.31
2018-10-17T00:52:43.276Z,100349.66
2018-10-17T00:55:12.929Z,100345.11
2018-10-17T00:57:42.911Z,100342.94
2018-10-17T01:00:12.624Z,100342.61
2018-10-17T01:02:42.693Z,100336.55
2018-10-17T01:05:12.745Z,100334.53
2018-10-17T01:07:42.852Z,100341.95
2018-10-17T01:10:12.848Z,100338.41
2018-10-17T01:12:42.962Z,100336.58
2018-10-17T01:15:13.052Z,100334.56
2018-10-17T01:17:42.980Z,100336.03
2018-10-17T01:20:12.994Z,100331.84
2018-10-17T01:22:43.219Z,100333.19
2018-10-17T01:25:13.279Z,100326.97
2018-10-17T01:27:43.407Z,100320.42
2018-10-17T01:30:13.450Z,100318.89
2018-10-17T01:32:43.488Z,100320.42
2018-10-17T01:35:13.566Z,100321.10
2018-10-17T01:37:43.700Z,100322.45
2018-10-17T01:40:13.748Z,100327.34
2018-10-17T01:42:43.812Z,100324.33
2018-10-17T01:45:13.791Z,100320.79
2018-10-17T01:47:43.927Z,100318.80
2018-10-17T01:50:13.945Z,100318.63
2018-10-17T01:52:43.972Z,100322.16
2018-10-17T01:55:14.039Z,100314.10
2018-10-17T01:57:44.019Z,100312.08
2018-10-17T02:00:13.984Z,100307.53
2018-10-17T02:02:44.059Z,100307.55
2018-10-17T02:05:14.075Z,100295.44
2018-10-17T02:07:44.057Z,100296.31
2018-10-17T02:10:14.252Z,100292.60
2018-10-17T02:12:44.204Z,100286.38
2018-10-17T02:15:14.279Z,100288.87
2018-10-17T02:17:44.240Z,100288.52
2018-10-17T02:20:14.320Z,100288.05
2018-10-17T02:22:44.268Z,100283.67
2018-10-17T02:25:14.430Z,100286.87
2018-10-17T02:27:45.151Z,100286.70
2018-10-17T02:30:15.092Z,100289.89
2018-10-17T02:32:45.115Z,100293.41
2018-10-17T02:35:17.111Z,100294.92
2018-10-17T02:37:47.422Z,100296.58
2018-10-17T02:40:17.418Z,100295.23
2018-10-17T02:42:47.404Z,100296.58
2018-10-17T02:45:17.439Z,100292.41
2018-10-17T02:47:47.540Z,100292.07
2018-10-17T02:50:17.585Z,100293.72
2018-10-17T02:52:47.720Z,100294.23
2018-10-17T02:55:17.752Z,100295.05
2018-10-17T02:57:47.785Z,100301.25
2018-10-17T03:00:17.765Z,100300.55
2018-10-17T03:02:47.834Z,100300.55
2018-10-17T03:05:17.861Z,100298.19
2018-10-17T03:07:47.779Z,100303.20
2018-10-17T03:10:17.766Z,100299.36
2018-10-17T03:12:47.804Z,100306.59
2018-10-17T03:15:17.800Z,100307.94
2018-10-17T03:17:47.771Z,100302.23
2018-10-17T03:20:17.795Z,100304.23
2018-10-17T03:22:47.752Z,100301.23
2018-10-17T03:25:17.864Z,100308.43
2018-10-17T03:27:47.825Z,100307.14
2018-10-17T03:30:17.777Z,100305.63
2018-10-17T03:32:47.724Z,100308.32
2018-10-17T03:35:17.909Z,100306.49
2018-10-17T03:37:47.767Z,100301.80
2018-10-17T03:40:17.848Z,100307.34
2018-10-17T03:42:47.697Z,100314.72
2018-10-17T03:45:17.780Z,100318.75
2018-10-17T03:47:47.743Z,100311.03
2018-10-17T03:50:17.772Z,100314.89
2018-10-17T03:52:47.792Z,100321.61
2018-10-17T03:55:17.792Z,100320.92
2018-10-17T03:57:47.719Z,100317.92
2018-10-17T04:00:17.809Z,100312.23
2018-10-17T04:02:47.845Z,100316.75
2018-10-17T04:05:17.954Z,100316.75
2018-10-17T04:07:47.840Z,100316.75
2018-10-17T04:10:17.744Z,100316.58
2018-10-17T04:12:47.780Z,100311.58
2018-10-17T04:15:17.825Z,100317.11
2018-10-17T04:17:47.819Z,100317.11
2018-10-17T04:20:17.804Z,100324.34
2018-10-17T04:22:55.189Z,100319.48
2018-10-17T04:25:25.497Z,100326.36
2018-10-17T04:27:55.796Z,100325.51
2018-10-17T04:30:26.148Z,100321.81
2018-10-17T04:32:56.335Z,100322.33
2018-10-17T04:35:26.352Z,100318.44
2018-10-17T04:37:56.564Z,100328.87
2018-10-17T04:40:26.712Z,100326.20
2018-10-17T04:42:56.875Z,100327.03
2018-10-17T04:45:26.888Z,100325.52
2018-10-17T04:47:57.038Z,100332.06
2018-10-17T04:50:27.136Z,100318.80
2018-10-17T04:52:57.238Z,100325.86
2018-10-17T04:55:27.252Z,100319.80
2018-10-17T04:57:57.256Z,100315.94
2018-10-17T05:00:27.375Z,100317.77
2018-10-17T05:02:58.998Z,100314.09
2018-10-17T05:05:29.040Z,100313.09
2018-10-17T05:07:59.076Z,100305.86
2018-10-17T05:10:28.924Z,100309.69
2018-10-17T05:12:59.146Z,100307.52
2018-10-17T05:15:28.817Z,100309.52
2018-10-17T05:17:58.739Z,100303.98
2018-10-17T05:20:28.940Z,100305.01
2018-10-17T05:22:59.002Z,100306.66
2018-10-17T05:25:29.045Z,100309.04
2018-10-17T05:27:59.081Z,100303.48
2018-10-17T05:30:29.197Z,100303.52
2018-10-17T05:32:59.241Z,100311.06
2018-10-17T05:35:29.339Z,100308.88
2018-10-17T05:37:59.450Z,100304.85
2018-10-17T05:40:29.435Z,100307.89
2018-10-17T05:42:59.519Z,100309.56
2018-10-17T05:45:29.483Z,100308.37
2018-10-17T05:47:59.496Z,100308.52
2018-10-17T05:50:29.533Z,100318.13
2018-10-17T05:52:59.541Z,100314.72
2018-10-17T05:55:29.568Z,100315.06
2018-10-17T05:57:59.705Z,100318.09
2018-10-17T06:00:29.672Z,100319.75
2018-10-17T06:03:00.025Z,100325.80
2018-10-17T06:05:30.056Z,100331.66
2018-10-17T06:08:00.176Z,100328.66
2018-10-17T06:10:30.301Z,100334.38
2018-10-17T06:13:00.281Z,100337.89
2018-10-17T06:15:30.416Z,100338.27
2018-10-17T06:18:00.505Z,100342.31
2018-10-17T06:20:30.545Z,100341.80
2018-10-17T06:23:00.668Z,100341.13
2018-10-17T06:25:30.688Z,100338.45
2018-10-17T06:28:00.784Z,100335.59
2018-10-17T06:30:30.780Z,100335.40
2018-10-17T06:33:00.801Z,100339.09
2018-10-17T06:35:30.807Z,100334.25
2018-10-17T06:38:00.873Z,100342.79
2018-10-17T06:40:30.865Z,100340.27
2018-10-17T06:43:00.984Z,100332.56
2018-10-17T06:45:30.991Z,100331.39
2018-10-17T06:48:01.025Z,100332.41
2018-10-17T06:50:31.035Z,100331.23
2018-10-17T06:53:01.274Z,100328.72
2018-10-17T06:55:31.257Z,100324.50
2018-10-17T06:58:01.244Z,100329.22
2018-10-17T07:00:31.189Z,100328.70
2018-10-17T07:03:01.292Z,100336.23
2018-10-17T07:05:31.327Z,100331.38
2018-10-17T07:08:01.426Z,100327.69
2018-10-17T07:10:31.569Z,100328.17
2018-10-17T07:13:01.836Z,100325.98
2018-10-17T07:15:31.927Z,100327.19
2018-10-17T07:18:01.905Z,100322.81
2018-10-17T07:20:31.997Z,100324.33
2018-10-17T07:23:02.074Z,100330.53
2018-10-17T07:25:32.138Z,100324.48
2018-10-17T07:28:02.156Z,100328.84
2018-10-17T07:30:32.351Z,100336.19
2018-10-17T07:33:02.379Z,100331.11
2018-10-17T07:35:32.546Z,100332.73
2018-10-17T07:38:02.704Z,100332.37
2018-10-17T07:40:32.789Z,100329.12
2018-10-17T07:43:02.837Z,100333.17
2018-10-17T07:45:32.991Z,100337.21
2018-10-17T07:48:03.147Z,100338.27
2018-10-17T07:50:33.126Z,100340.68
2018-10-17T07:53:03.331Z,100338.17
2018-10-17T07:55:33.484Z,100339.75
2018-10-17T07:58:03.682Z,100341.92
2018-10-17T08:00:33.364Z,100342.73
2018-10-17T08:03:03.062Z,100343.25
2018-10-17T08:05:32.724Z,100346.70
2018-10-17T08:08:02.426Z,100341.41
2018-10-17T08:10:32.116Z,100346.73
2018-10-17T08:13:02.304Z,100341.57
2018-10-17T08:15:31.968Z,100342.47
2018-10-17T08:18:01.919Z,100345.27
2018-10-17T08:20:31.599Z,100338.59
2018-10-17T08:23:01.258Z,100340.89
2018-10-17T08:25:30.978Z,100344.52
2018-10-17T08:28:00.648Z,100347.45
2018-10-17T08:30:30.312Z,100343.63
2018-10-17T08:32:59.980Z,100346.22
2018-10-17T08:35:29.835Z,100341.05
2018-10-17T08:37:59.444Z,100344.96
2018-10-17T08:40:29.124Z,100341.78
2018-10-17T08:42:58.784Z,100347.27
2018-10-17T08:45:28.496Z,100346.38
2018-10-17T08:47:58.197Z,100339.48
2018-10-17T08:50:27.871Z,100343.48
2018-10-17T08:52:57.533Z,100332.52
2018-10-17T08:55:27.216Z,100335.53
2018-10-17T08:57:57.061Z,100340.38
2018-10-17T09:00:26.708Z,100336.15
2018-10-17T09:02:56.408Z,100337.97
2018-10-17T09:05:26.102Z,100344.23
2018-10-17T09:07:55.795Z,100339.94
2018-10-17T09:10:25.456Z,100342.16
2018-10-17T09:12:55.136Z,100344.70
2018-10-17T09:15:24.866Z,100337.55
2018-10-17T09:17:54.515Z,100332.25
2018-10-17T09:20:24.497Z,100330.05
2018-10-17T09:22:53.883Z,100333.08
2018-10-17T09:25:23.661Z,100324.33
2018-10-17T09:27:53.341Z,100330.28
2018-10-17T09:30:23.072Z,100331.23
2018-10-17T09:32:52.705Z,100321.91
2018-10-17T09:35:22.385Z,100325.54
2018-10-17T09:37:52.040Z,100331.06
2018-10-17T09:40:21.752Z,100329.97
2018-10-17T09:42:51.435Z,100324.61
2018-10-17T09:45:21.173Z,100320.00
2018-10-17T09:47:50.862Z,100321.52
2018-10-17T09:50:20.580Z,100326.83
2018-10-17T09:52:50.244Z,100325.02
2018-10-17T09:55:19.937Z,100329.11
2018-10-17T09:57:49.600Z,100327.40
2018-10-17T10:00:24.384Z,100326.81
2018-10-17T10:02:54.068Z,100320.04
2018-10-17T10:05:23.775Z,100323.42
2018-10-17T10:07:53.459Z,100322.41
2018-10-17T10:10:23.149Z,100327.31
2018-10-17T10:12:52.812Z,100316.39
2018-10-17T10:15:22.493Z,100326.26
2018-10-17T10:17:52.158Z,100315.38
2018-10-17T10:20:21.833Z,100312.98
2018-10-17T10:22:51.537Z,100310.58
2018-10-17T10:25:21.341Z,100316.11
2018-10-17T10:27:51.051Z,100309.38
2018-10-17T10:30:20.783Z,100310.20
2018-10-17T10:32:50.384Z,100311.25
2018-10-17T10:35:20.122Z,100310.97
2018-10-17T10:37:49.784Z,100308.70
2018-10-17T10:40:19.504Z,100306.52
2018-10-17T10:42:49.188Z,100308.95
2018-10-17T10:45:19.074Z,100309.25
2018-10-17T10:47:48.661Z,100305.78
2018-10-17T10:50:18.510Z,100303.55
2018-10-17T10:52:48.127Z,100304.16
2018-10-17T10:55:17.786Z,100301.09
2018-10-17T10:57:47.451Z,100296.41
2018-10-17T11:00:17.165Z,100298.66
2018-10-17T11:02:46.804Z,100296.09
2018-10-17T11:05:16.570Z,100286.31
2018-10-17T11:07:46.190Z,100287.27
2018-10-17T11:10:15.864Z,100286.86
2018-10-17T11:12:45.554Z,100285.12
2018-10-17T11:15:15.246Z,100286.01
2018-10-17T11:17:44.909Z,100286.77
2018-10-17T11:20:14.588Z,100285.58
2018-10-17T11:22:44.234Z,100278.07
2018-10-17T11:25:13.953Z,100280.56
2018-10-17T11:27:43.636Z,100277.46
2018-10-17T11:30:13.316Z,100277.73
2018-10-17T11:32:42.956Z,100274.94
2018-10-17T11:35:12.785Z,100269.55
2018-10-17T11:37:42.458Z,100276.44
2018-10-17T11:40:12.267Z,100271.28
2018-10-17T11:42:41.896Z,100266.69
2018-10-17T11:45:11.635Z,100263.74
2018-10-17T11:47:41.308Z,100264.45
2018-10-17T11:50:11.435Z,100263.33
2018-10-17T11:52:41.101Z,100262.50
2018-10-17T11:55:10.805Z,100263.17
2018-10-17T11:57:40.468Z,100256.59
2018-10-17T12:00:12.108Z,100251.02
2018-10-17T12:02:41.779Z,100247.56
2018-10-17T12:05:14.294Z,100245.74
2018-10-17T12:07:44.197Z,100246.25
2018-10-17T12:10:13.869Z,100246.31
2018-10-17T12:12:43.540Z,100240.47
2018-10-17T12:15:14.571Z,100235.88
2018-10-17T12:17:44.196Z,100234.45
2018-10-17T12:20:15.018Z,100230.00
2018-10-17T12:22:45.360Z,100230.12
2018-10-17T12:25:15.579Z,100235.64
2018-10-17T12:27:45.308Z,100230.97
2018-10-17T12:30:15.716Z,100234.81
2018-10-17T12:32:45.337Z,100236.76
2018-10-17T12:35:15.035Z,100237.94
2018-10-17T12:37:44.945Z,100239.43
2018-10-17T12:40:14.704Z,100240.73
2018-10-17T12:42:44.311Z,100238.43
2018-10-17T12:45:14.012Z,100241.98
2018-10-17T12:47:43.811Z,100240.98
2018-10-17T12:50:13.492Z,100239.80
2018-10-17T12:52:43.460Z,100237.00
2018-10-17T12:55:13.148Z,100228.92
2018-10-17T12:57:42.788Z,100229.34
2018-10-17T13:00:12.488Z,100234.32
2018-10-17T13:02:42.172Z,100235.66
2018-10-17T13:05:12.000Z,100227.82
2018-10-17T13:07:41.652Z,100223.94
2018-10-17T13:10:12.153Z,100226.18
2018-10-17T13:12:42.094Z,100222.22
2018-10-17T13:15:13.630Z,100217.14
2018-10-17T13:17:44.512Z,100218.27
2018-10-17T13:20:14.476Z,100221.06
2018-10-17T13:22:44.168Z,100220.16
2018-10-17T13:25:13.834Z,100216.77
2018-10-17T13:27:43.585Z,100216.48
2018-10-17T13:30:13.280Z,100221.30
2018-10-17T13:32:42.972Z,100215.72
2018-10-17T13:35:12.732Z,100210.59
2018-10-17T13:37:42.504Z,100211.05
2018-10-17T13:40:12.211Z,100207.91
2018-10-17T13:42:41.885Z,100204.61
2018-10-17T13:45:11.532Z,100210.09
2018-10-17T13:47:41.207Z,100208.83
2018-10-17T13:50:10.936Z,100215.84
2018-10-17T13:52:40.608Z,100209.63
2018-10-17T13:55:10.358Z,100215.38
2018-10-17T13:57:40.071Z,100217.03
2018-10-17T14:00:12.049Z,100217.63
2018-10-17T14:02:42.920Z,100216.97
2018-10-17T14:05:12.608Z,100217.76
2018-10-17T14:07:42.286Z,100216.70
2018-10-17T14:10:11.937Z,100215.20
2018-10-17T14:12:41.640Z,100218.20
2018-10-17T14:15:11.388Z,100215.88
2018-10-17T14:17:40.992Z,100217.30
2018-10-17T14:20:10.645Z,100219.57
2018-10-17T14:22:40.329Z,100215.88
2018-10-17T14:25:09.995Z,100215.08
2018-10-17T14:27:39.722Z,100215.49
2018-10-17T14:30:09.798Z,100211.14
2018-10-17T14:32:39.456Z,100219.08
2018-10-17T14:35:10.908Z,100210.94
2018-10-17T14:37:40.721Z,100210.94
2018-10-17T14:40:10.352Z,100208.70
2018-10-17T14:42:40.036Z,100204.91
2018-10-17T14:45:10.808Z,100212.67
2018-10-17T14:47:40.582Z,100212.61
2018-10-17T14:50:10.256Z,100217.31
2018-10-17T14:52:40.001Z,100210.31
2018-10-17T14:55:09.740Z,100215.59
2018-10-17T14:57:39.472Z,100213.55
2018-10-17T15:00:13.178Z,100214.92
2018-10-17T15:02:43.099Z,100216.28
2018-10-17T15:05:12.842Z,100215.17
2018-10-17T15:07:43.245Z,100211.61
2018-10-17T15:10:13.014Z,100218.37
2018-10-17T15:12:42.692Z,100224.77
2018-10-17T15:15:13.250Z,100224.27
2018-10-17T15:17:42.903Z,100225.50
2018-10-17T15:20:12.569Z,100230.55
2018-10-17T15:22:42.248Z,100227.44
2018-10-17T15:25:11.914Z,100225.96
2018-10-17T15:27:41.616Z,100224.29
2018-10-17T15:30:11.363Z,100228.48
2018-10-17T15:32:40.988Z,100226.67
2018-10-17T15:35:10.632Z,100230.22
2018-10-17T15:37:40.340Z,100234.55
2018-10-17T15:40:10.054Z,100231.05
2018-10-17T15:42:39.712Z,100233.85
2018-10-17T15:45:09.430Z,100235.37
2018-10-17T15:47:39.345Z,100227.73
2018-10-17T15:50:09.125Z,100229.44
2018-10-17T15:52:38.816Z,100231.92
2018-10-17T15:55:08.525Z,100231.25
2018-10-17T15:57:38.229Z,100228.16
2018-10-17T16:00:09.869Z,100227.77
2018-10-17T16:02:39.787Z,100227.47
2018-10-17T16:05:11.136Z,100226.81
2018-10-17T16:07:41.177Z,100232.00
2018-10-17T16:10:10.833Z,100232.87
2018-10-17T16:12:40.481Z,100230.96
2018-10-17T16:15:10.732Z,100238.45
2018-10-17T16:17:40.402Z,100237.05
2018-10-17T16:20:11.813Z,100235.50
2018-10-17T16:22:41.864Z,100240.63
2018-10-17T16:25:11.562Z,100241.11
2018-10-17T16:27:41.327Z,100242.55
2018-10-17T16:30:12.440Z,100238.41
2018-10-17T16:32:41.993Z,100238.56
2018-10-17T16:35:11.724Z,100235.94
2018-10-17T16:37:41.503Z,100237.85
2018-10-17T16:40:11.234Z,100238.07
2018-10-17T16:42:40.912Z,100234.02
2018-10-17T16:45:11.500Z,100237.80
2018-10-17T16:47:41.260Z,100236.87
2018-10-17T16:50:11.093Z,100241.47
2018-10-17T16:52:40.648Z,100242.92
2018-10-17T16:55:10.334Z,100247.01
2018-10-17T16:57:39.993Z,100254.63
2018-10-17T17:00:11.177Z,100250.56
2018-10-17T17:02:40.816Z,100255.99
2018-10-17T17:05:12.577Z,100256.70
2018-10-17T17:07:42.452Z,100262.88
2018-10-17T17:10:13.324Z,100260.78
2018-10-17T17:12:43.088Z,100268.91
2018-10-17T17:15:13.027Z,100276.72
2018-10-17T17:17:43.017Z,100273.07
2018-10-17T17:20:13.115Z,100273.18
2018-10-17T17:22:42.827Z,100274.73
2018-10-17T17:25:12.656Z,100279.95
2018-10-17T17:27:42.342Z,100279.92
2018-10-17T17:30:15.375Z,100278.97
2018-10-17T17:32:45.420Z,100282.59
2018-10-17T17:35:15.180Z,100287.69
2018-10-17T17:37:44.849Z,100284.86
2018-10-17T17:40:15.322Z,100288.20
2018-10-17T17:42:44.978Z,100291.11
2018-10-17T17:45:14.632Z,100289.38
2018-10-17T17:47:44.347Z,100286.02
2018-10-17T17:50:14.007Z,100289.84
2018-10-17T17:52:43.680Z,100278.16
2018-10-17T17:55:13.379Z,100289.03
2018-10-17T17:57:43.099Z,100278.28
2018-10-17T18:00:12.880Z,100281.97
2018-10-17T18:02:42.660Z,100284.80
2018-10-17T18:05:12.342Z,100285.98
2018-10-17T18:07:42.329Z,100287.05
2018-10-17T18:10:12.052Z,100289.95
2018-10-17T18:12:41.840Z,100284.41
2018-10-17T18:15:11.618Z,100289.45
2018-10-17T18:17:41.312Z,100296.86
2018-10-17T18:20:11.068Z,100296.80
2018-10-17T18:22:40.749Z,100290.25
2018-10-17T18:25:10.433Z,100294.06
2018-10-17T18:27:41.472Z,100299.02
2018-10-17T18:30:11.105Z,100299.08
2018-10-17T18:32:41.006Z,100299.97
2018-10-17T18:35:10.773Z,100302.94
2018-10-17T18:37:40.453Z,100299.91
2018-10-17T18:40:10.240Z,100300.80
2018-10-17T18:42:39.896Z,100305.81
2018-10-17T18:45:09.593Z,100310.72
2018-10-17T18:47:39.378Z,100313.09
2018-10-17T18:50:09.145Z,100317.14
2018-10-17T18:52:38.810Z,100316.94
2018-10-17T18:55:08.872Z,100316.81
2018-10-17T18:57:38.551Z,100317.90
2018-10-17T19:00:09.905Z,100322.63
2018-10-17T19:02:39.628Z,100321.58
2018-10-17T19:05:09.340Z,100325.55
2018-10-17T19:10:20.081Z,100326.22
2018-10-17T19:12:49.728Z,100328.09
2018-10-17T19:15:19.434Z,100327.44
2018-10-17T19:17:49.121Z,100336.78
2018-10-17T19:20:18.776Z,100338.30
2018-10-17T19:22:48.470Z,100339.37
2018-10-17T19:25:18.185Z,100341.19
2018-10-17T19:27:47.987Z,100340.03
2018-10-17T19:30:17.666Z,100342.98
2018-10-17T19:32:47.384Z,100346.97
2018-10-17T19:35:17.079Z,100345.63
2018-10-17T19:37:46.744Z,100347.84
2018-10-17T19:40:16.449Z,100351.22
2018-10-17T19:42:46.125Z,100351.81
2018-10-17T19:45:15.879Z,100347.20
2018-10-17T19:47:45.532Z,100339.88
2018-10-17T19:50:15.204Z,100349.14
2018-10-17T19:52:44.866Z,100346.68
2018-10-17T19:55:14.563Z,100344.75
2018-10-17T19:57:44.239Z,100344.12
2018-10-17T20:00:14.829Z,100341.52
2018-10-17T20:02:44.508Z,100335.59
2018-10-17T20:05:14.260Z,100342.34
2018-10-17T20:07:44.071Z,100343.44
2018-10-17T20:10:13.694Z,100345.13
2018-10-17T20:12:43.377Z,100345.80
2018-10-17T20:15:13.137Z,100345.80
2018-10-17T20:17:42.766Z,100343.14
2018-10-17T20:20:12.468Z,100343.62
2018-10-17T20:22:42.108Z,100339.31
2018-10-17T20:25:11.846Z,100352.10
2018-10-17T20:27:41.564Z,100349.66
2018-10-17T20:30:11.556Z,100346.66
2018-10-17T20:32:41.279Z,100357.74
2018-10-17T20:35:11.037Z,100354.86
2018-10-17T20:37:40.883Z,100356.55
2018-10-17T20:40:10.576Z,100360.51
2018-10-17T20:42:40.237Z,100363.02
2018-10-17T20:45:09.946Z,100364.55
2018-10-17T20:47:39.615Z,100363.12
2018-10-17T20:50:09.410Z,100363.33
2018-10-17T20:52:39.048Z,100365.20
2018-10-17T20:55:08.784Z,100363.57
2018-10-17T20:57:38.454Z,100369.08
2018-10-17T21:00:08.680Z,100369.60
2018-10-17T21:02:38.340Z,100372.94
2018-10-17T21:05:08.310Z,100368.44
2018-10-17T21:07:38.019Z,100374.16
2018-10-17T21:10:08.527Z,100374.45
2018-10-17T21:12:38.187Z,100378.17
2018-10-17T21:15:08.515Z,100379.70
2018-10-17T21:17:38.164Z,100376.70
2018-10-17T21:20:07.888Z,100379.05
2018-10-17T21:22:37.554Z,100376.04
2018-10-17T21:25:07.304Z,100378.39
2018-10-17T21:27:36.996Z,100382.38
2018-10-17T21:30:07.937Z,100380.73
2018-10-17T21:32:37.619Z,100380.71
2018-10-17T21:35:07.904Z,100381.77
2018-10-17T21:37:37.720Z,100380.39
2018-10-17T21:40:07.431Z,100384.63
2018-10-17T21:42:37.073Z,100385.80
2018-10-17T21:45:07.720Z,100385.83
2018-10-17T21:47:37.447Z,100388.86
2018-10-17T21:50:07.313Z,100393.72
2018-10-17T21:52:37.303Z,100396.58
2018-10-17T21:55:07.089Z,100393.56
2018-10-17T21:57:36.766Z,100390.73
2018-10-17T22:00:07.839Z,100390.91
2018-10-17T22:02:37.496Z,100390.96
2018-10-17T22:05:08.556Z,100390.65
2018-10-17T22:07:38.228Z,100388.44
2018-10-17T22:10:08.693Z,100387.28
2018-10-17T22:12:38.591Z,100386.76
2018-10-17T22:15:09.249Z,100386.76
2018-10-17T22:17:38.919Z,100383.91
2018-10-17T22:20:08.686Z,100382.73
2018-10-17T22:22:38.328Z,100387.95
2018-10-17T22:25:08.492Z,100392.51
2018-10-17T22:27:38.164Z,100394.69
2018-10-17T22:30:08.203Z,100393.00
2018-10-17T22:32:37.845Z,100392.69
2018-10-17T22:35:07.597Z,100392.51
2018-10-17T22:37:37.252Z,100397.53
2018-10-17T22:40:06.948Z,100398.04
2018-10-17T22:42:36.628Z,100399.08
2018-10-17T22:45:06.717Z,100400.75
2018-10-17T22:47:36.392Z,100403.09
2018-10-17T22:50:07.313Z,100405.46
2018-10-17T22:52:36.970Z,100409.48
2018-10-17T22:55:06.719Z,100413.17
2018-10-17T22:57:36.361Z,100410.16
2018-10-17T23:00:07.420Z,100418.22
2018-10-17T23:02:37.072Z,100423.08
2018-10-17T23:05:06.813Z,100423.08
2018-10-17T23:07:36.484Z,100422.73
2018-10-17T23:10:06.340Z,100421.73
2018-10-17T23:12:36.010Z,100423.42
2018-10-17T23:15:09.509Z,100419.22
2018-10-17T23:17:39.177Z,100418.53
2018-10-17T23:20:09.219Z,100421.39
2018-10-17T23:22:39.595Z,100418.22
2018-10-17T23:25:10.583Z,100412.51
2018-10-17T23:27:40.861Z,100417.03
2018-10-17T23:30:11.301Z,100414.69
2018-10-17T23:32:41.039Z,100421.25
2018-10-17T23:35:10.721Z,100422.59
2018-10-17T23:37:40.378Z,100420.75
2018-10-17T23:40:10.252Z,100424.44
2018-10-17T23:42:39.931Z,100418.55
2018-10-17T23:45:09.622Z,100425.27
2018-10-17T23:47:39.291Z,100422.58
2018-10-17T23:50:09.133Z,100424.78
2018-10-17T23:52:39.103Z,100423.27
2018-10-17T23:55:09.188Z,100424.92
2018-10-17T23:57:38.920Z,100425.78
